Time;durP1;ratioP1;P1;durP2;ratioP2;P2;SDS_P1;SDS_P2;PMS_P1;PMS_P2;Temp;Humidity;BMP_temperature;BMP_pressure;BME280_temperature;BME280_humidity;BME280_pressure;Samples;Min_cycle;Max_cycle;Signal;HPM_P1;HPM_P2
2023/05/01 00:00:11;;;;;;;4.87;4.67;;;12.70;99.90;;;;;;5031264;28;20187;-63
2023/05/01 00:02:37;;;;;;;5.37;4.97;;;12.70;99.90;;;;;;5032423;28;20697;-64
2023/05/01 00:05:03;;;;;;;4.97;4.60;;;12.80;99.90;;;;;;5032518;28;20243;-64
2023/05/01 00:07:30;;;;;;;7.30;5.37;;;12.80;99.90;;;;;;5032369;28;20210;-63
2023/05/01 00:09:58;;;;;;;5.53;5.23;;;12.80;99.90;;;;;;5032379;28;20202;-63
2023/05/01 00:12:24;;;;;;;5.17;4.87;;;12.80;99.90;;;;;;5032193;28;20175;-64
2023/05/01 00:14:50;;;;;;;5.23;4.93;;;12.80;99.90;;;;;;5032381;28;20175;-64
2023/05/01 00:17:16;;;;;;;5.40;5.10;;;12.80;99.90;;;;;;5032341;28;20183;-64
2023/05/01 00:19:41;;;;;;;5.33;5.03;;;12.80;99.90;;;;;;5032045;28;20250;-63
2023/05/01 00:22:07;;;;;;;5.87;5.30;;;12.80;99.90;;;;;;5032489;28;20183;-64
2023/05/01 00:24:33;;;;;;;5.87;5.07;;;12.70;99.90;;;;;;5032256;28;20620;-64
2023/05/01 00:26:58;;;;;;;5.43;5.13;;;12.70;99.90;;;;;;5031833;28;20252;-64
2023/05/01 00:29:24;;;;;;;6.37;5.97;;;12.70;99.90;;;;;;5032078;28;20551;-64
2023/05/01 00:31:50;;;;;;;5.87;5.57;;;12.60;99.90;;;;;;5031924;28;20240;-64
2023/05/01 00:34:15;;;;;;;6.40;5.80;;;12.70;99.90;;;;;;5032163;28;20176;-63
2023/05/01 00:36:41;;;;;;;6.10;5.50;;;12.70;99.90;;;;;;5031605;28;20557;-64
2023/05/01 00:39:07;;;;;;;5.87;5.17;;;12.70;99.90;;;;;;5031903;28;20239;-64
2023/05/01 00:41:35;;;;;;;6.93;6.37;;;12.70;99.90;;;;;;5031784;28;20544;-63
2023/05/01 00:44:02;;;;;;;6.17;5.77;;;12.60;99.90;;;;;;5031937;28;20180;-63
2023/05/01 00:46:29;;;;;;;5.63;5.33;;;12.60;99.90;;;;;;5031547;28;20207;-64
2023/05/01 00:48:56;;;;;;;6.00;5.60;;;12.60;99.90;;;;;;5031748;28;20560;-64
2023/05/01 00:51:21;;;;;;;5.47;5.17;;;12.60;99.90;;;;;;5031502;28;20629;-64
2023/05/01 00:53:47;;;;;;;6.20;5.73;;;12.60;99.90;;;;;;5031831;28;20171;-64
2023/05/01 00:56:14;;;;;;;5.90;5.30;;;12.60;99.90;;;;;;5031480;28;20651;-64
2023/05/01 00:58:40;;;;;;;5.93;5.47;;;12.60;99.90;;;;;;5031459;28;20199;-64
2023/05/01 01:01:07;;;;;;;6.50;5.50;;;12.60;99.90;;;;;;5031448;28;20590;-63
2023/05/01 01:03:33;;;;;;;6.67;6.17;;;12.60;99.90;;;;;;5031694;28;20641;-63
2023/05/01 01:06:14;;;;;;;7.27;6.83;;;12.50;99.90;;;;;;5031625;28;20215;-64
2023/05/01 01:08:48;;;;;;;6.93;6.40;;;12.60;99.90;;;;;;5031597;28;20234;-64
2023/05/01 01:11:23;;;;;;;7.33;6.83;;;12.60;99.90;;;;;;5031411;28;20183;-64
2023/05/01 01:14:17;;;;;;;6.07;5.73;;;12.60;99.90;;;;;;5031499;28;20171;-64
2023/05/01 01:16:58;;;;;;;5.83;5.43;;;12.50;99.90;;;;;;5031334;28;20185;-64
2023/05/01 01:20:00;;;;;;;6.00;5.60;;;12.60;99.90;;;;;;5031211;28;20229;-63
2023/05/01 01:22:27;;;;;;;5.70;5.40;;;12.60;99.90;;;;;;5031150;28;20182;-63
2023/05/01 01:25:17;;;;;;;5.50;5.20;;;12.50;99.90;;;;;;5031148;28;20229;-63
2023/05/01 01:28:06;;;;;;;6.63;5.50;;;12.50;99.90;;;;;;5031026;28;20618;-64
2023/05/01 01:30:51;;;;;;;5.60;5.30;;;12.50;99.90;;;;;;5031002;28;20171;-63
2023/05/01 01:33:29;;;;;;;5.70;5.37;;;12.50;99.90;;;;;;5031341;28;20229;-64
2023/05/01 01:35:59;;;;;;;7.93;6.80;;;12.50;99.90;;;;;;5029981;28;20187;-64
2023/05/01 01:38:45;;;;;;;6.83;6.43;;;12.50;99.90;;;;;;5031231;28;20202;-63
2023/05/01 01:41:20;;;;;;;7.97;7.27;;;12.50;99.90;;;;;;5030996;28;20183;-64
2023/05/01 01:44:00;;;;;;;7.03;6.57;;;12.50;99.90;;;;;;5032238;28;20186;-63
2023/05/01 01:46:26;;;;;;;7.67;7.17;;;12.50;99.90;;;;;;5027393;28;20210;-64
2023/05/01 01:48:54;;;;;;;5.43;5.10;;;12.50;99.90;;;;;;5031583;28;20199;-63
2023/05/01 01:51:22;;;;;;;6.20;5.80;;;12.50;99.90;;;;;;5031877;28;20700;-63
2023/05/01 01:53:52;;;;;;;7.63;5.97;;;12.40;99.90;;;;;;5031369;28;20176;-63
2023/05/01 01:56:21;;;;;;;5.50;5.20;;;12.40;99.90;;;;;;5030988;28;20263;-63
2023/05/01 01:58:50;;;;;;;5.67;5.27;;;12.40;99.90;;;;;;5030891;28;20199;-64
2023/05/01 02:01:17;;;;;;;5.77;5.37;;;12.40;99.90;;;;;;5030681;28;20184;-63
2023/05/01 02:03:45;;;;;;;5.87;5.40;;;12.40;99.90;;;;;;5030943;28;20206;-63
2023/05/01 02:06:12;;;;;;;6.33;5.13;;;12.40;99.90;;;;;;5030560;28;20199;-63
2023/05/01 02:08:41;;;;;;;6.47;5.90;;;12.40;99.90;;;;;;5030667;28;20223;-63
2023/05/01 02:11:07;;;;;;;6.53;5.30;;;12.40;99.90;;;;;;5030597;28;20184;-63
2023/05/01 02:13:37;;;;;;;7.27;6.87;;;12.40;99.90;;;;;;5030777;28;20179;-63
2023/05/01 02:16:05;;;;;;;8.17;7.77;;;12.40;99.90;;;;;;5030737;28;20179;-63
2023/05/01 02:18:32;;;;;;;6.17;5.77;;;12.50;99.90;;;;;;5030749;28;20195;-63
2023/05/01 02:20:59;;;;;;;6.07;5.67;;;12.50;99.90;;;;;;5030416;28;20238;-64
2023/05/01 02:23:28;;;;;;;6.80;6.30;;;12.40;99.90;;;;;;5030872;28;20179;-63
2023/05/01 02:25:56;;;;;;;5.43;5.13;;;12.40;99.90;;;;;;5030580;28;20559;-63
2023/05/01 02:28:25;;;;;;;5.40;5.10;;;12.40;99.90;;;;;;5030572;28;20203;-63
2023/05/01 02:30:51;;;;;;;5.53;5.17;;;12.40;99.90;;;;;;5030164;28;20176;-63
2023/05/01 02:33:17;;;;;;;5.90;5.50;;;12.40;99.90;;;;;;5030806;28;20178;-63
2023/05/01 02:35:46;;;;;;;5.30;5.00;;;12.40;99.90;;;;;;5030474;28;20207;-69
2023/05/01 02:38:13;;;;;;;6.53;5.97;;;12.40;99.90;;;;;;5032856;28;20199;-69
2023/05/01 02:40:41;;;;;;;6.27;5.87;;;12.50;99.90;;;;;;5036008;28;20176;-71
2023/05/01 02:43:11;;;;;;;6.17;5.73;;;12.50;99.90;;;;;;5035838;28;20175;-65
2023/05/01 02:45:39;;;;;;;5.37;5.07;;;12.50;99.90;;;;;;5035552;28;20168;-72
2023/05/01 02:48:06;;;;;;;6.07;5.57;;;12.50;99.90;;;;;;5034509;28;20219;-70
2023/05/01 02:50:33;;;;;;;6.13;5.53;;;12.40;99.90;;;;;;5035693;28;20176;-69
2023/05/01 02:53:00;;;;;;;5.60;5.30;;;12.50;99.90;;;;;;5035506;28;20187;-70
2023/05/01 02:55:26;;;;;;;5.77;5.33;;;12.40;99.90;;;;;;5035466;28;20168;-71
2023/05/01 02:57:52;;;;;;;5.80;5.40;;;12.40;99.90;;;;;;5034935;28;20245;-71
2023/05/01 03:00:18;;;;;;;7.43;5.63;;;12.40;99.90;;;;;;5034740;28;20207;-73
2023/05/01 03:02:44;;;;;;;5.77;5.37;;;12.40;99.90;;;;;;5034961;28;20194;-69
2023/05/01 03:05:10;;;;;;;5.83;5.53;;;12.40;99.90;;;;;;5034379;28;20172;-64
2023/05/01 03:07:36;;;;;;;6.20;5.70;;;12.30;99.90;;;;;;5033941;28;20572;-64
2023/05/01 03:10:03;;;;;;;5.70;5.30;;;12.30;99.90;;;;;;5032808;28;20567;-64
2023/05/01 03:12:29;;;;;;;6.17;5.60;;;12.30;99.90;;;;;;5033467;28;20207;-64
2023/05/01 03:14:55;;;;;;;6.40;6.00;;;12.30;99.90;;;;;;5034026;28;20176;-64
2023/05/01 03:17:21;;;;;;;5.70;5.30;;;12.20;99.90;;;;;;5033284;28;20596;-64
2023/05/01 03:19:47;;;;;;;5.67;5.27;;;12.20;99.90;;;;;;5032843;28;20195;-64
2023/05/01 03:22:13;;;;;;;5.73;5.40;;;12.20;99.90;;;;;;5033542;28;20168;-64
2023/05/01 03:24:39;;;;;;;6.07;5.67;;;12.20;99.90;;;;;;5033021;28;20188;-64
2023/05/01 03:27:06;;;;;;;5.67;5.37;;;12.10;99.90;;;;;;5033245;28;20211;-64
2023/05/01 03:29:32;;;;;;;5.60;5.30;;;12.10;99.90;;;;;;5033308;28;20338;-64
2023/05/01 03:31:58;;;;;;;5.60;5.30;;;12.10;99.90;;;;;;5033374;28;20727;-65
2023/05/01 03:34:24;;;;;;;7.00;6.40;;;12.10;99.90;;;;;;5032948;28;20207;-65
2023/05/01 03:36:50;;;;;;;6.87;6.40;;;12.10;99.90;;;;;;5033098;28;20183;-65
2023/05/01 03:39:16;;;;;;;6.73;6.43;;;12.00;99.90;;;;;;5032682;28;20195;-64
2023/05/01 03:41:41;;;;;;;6.20;5.80;;;12.00;99.90;;;;;;5033158;28;20266;-65
2023/05/01 03:44:07;;;;;;;6.30;6.00;;;12.00;99.90;;;;;;5032927;28;20250;-64
2023/05/01 03:46:33;;;;;;;6.60;6.10;;;11.90;99.90;;;;;;5032811;28;20238;-64
2023/05/01 03:48:58;;;;;;;5.83;5.50;;;11.80;99.90;;;;;;5032290;28;20195;-64
2023/05/01 03:51:24;;;;;;;6.27;5.77;;;11.80;99.90;;;;;;5032511;28;20638;-64
2023/05/01 03:53:51;;;;;;;7.37;6.77;;;11.80;99.90;;;;;;5032699;28;20262;-65
2023/05/01 03:56:16;;;;;;;6.90;6.50;;;11.80;99.90;;;;;;5032908;28;20206;-64
2023/05/01 03:58:42;;;;;;;7.20;6.63;;;11.70;99.90;;;;;;5032299;28;20199;-64
2023/05/01 04:01:08;;;;;;;7.37;6.87;;;11.70;99.90;;;;;;5032445;28;20183;-64
2023/05/01 04:03:33;;;;;;;7.33;6.87;;;11.60;99.90;;;;;;5032406;28;20172;-63
2023/05/01 04:05:59;;;;;;;6.90;6.50;;;11.60;99.90;;;;;;5032596;28;20269;-64
2023/05/01 04:08:25;;;;;;;5.80;5.40;;;11.60;99.90;;;;;;5032410;28;20199;-64
2023/05/01 04:10:50;;;;;;;7.13;6.57;;;11.50;99.90;;;;;;5031994;28;20486;-64
2023/05/01 04:13:16;;;;;;;6.63;6.03;;;11.50;99.90;;;;;;5032289;28;20180;-64
2023/05/01 04:15:48;;;;;;;6.13;5.70;;;11.50;99.90;;;;;;5032406;28;20172;-65
2023/05/01 04:18:14;;;;;;;6.30;5.90;;;11.50;99.90;;;;;;5031808;28;20218;-64
2023/05/01 04:20:39;;;;;;;6.17;5.77;;;11.50;99.90;;;;;;5030943;28;20187;-64
2023/05/01 04:23:05;;;;;;;5.30;5.00;;;11.50;99.90;;;;;;5031829;28;20238;-64
2023/05/01 04:25:30;;;;;;;5.50;5.20;;;11.50;99.90;;;;;;5032054;28;20218;-64
2023/05/01 04:27:56;;;;;;;6.10;5.70;;;11.50;99.90;;;;;;5031749;28;20215;-63
2023/05/01 04:30:22;;;;;;;6.10;5.80;;;11.40;99.90;;;;;;5031751;28;20648;-65
2023/05/01 04:32:47;;;;;;;6.23;5.83;;;11.40;99.90;;;;;;5031702;28;20175;-64
2023/05/01 04:35:13;;;;;;;6.93;6.53;;;11.30;99.90;;;;;;5032280;28;20167;-64
2023/05/01 04:37:38;;;;;;;6.30;5.80;;;11.30;99.90;;;;;;5031405;28;20179;-64
2023/05/01 04:40:05;;;;;;;7.00;6.50;;;11.30;99.90;;;;;;5031504;28;20181;-64
2023/05/01 04:42:31;;;;;;;6.10;5.80;;;11.30;99.90;;;;;;5031436;28;20524;-64
2023/05/01 04:44:57;;;;;;;6.00;5.70;;;11.40;99.90;;;;;;5031633;28;20180;-64
2023/05/01 04:47:22;;;;;;;6.73;6.27;;;11.40;99.90;;;;;;5031443;28;20202;-64
2023/05/01 04:49:48;;;;;;;6.23;5.87;;;11.40;99.90;;;;;;5031323;28;20187;-65
2023/05/01 04:52:13;;;;;;;7.03;6.53;;;11.40;99.90;;;;;;5031865;28;20178;-63
2023/05/01 04:54:39;;;;;;;6.97;6.37;;;11.50;99.90;;;;;;5031544;28;20183;-63
2023/05/01 04:57:05;;;;;;;6.10;5.80;;;11.50;99.90;;;;;;5031903;28;20225;-63
2023/05/01 04:59:30;;;;;;;6.67;6.17;;;11.60;99.90;;;;;;5031323;28;20207;-63
2023/05/01 05:01:56;;;;;;;7.13;6.47;;;11.70;99.90;;;;;;5031134;28;20187;-64
2023/05/01 05:04:22;;;;;;;7.10;6.60;;;11.80;99.90;;;;;;5031542;28;20278;-63
2023/05/01 05:06:47;;;;;;;6.93;6.53;;;11.90;99.90;;;;;;5031610;28;20192;-63
2023/05/01 05:09:13;;;;;;;7.33;6.70;;;12.00;99.90;;;;;;5031183;28;20191;-63
2023/05/01 05:11:40;;;;;;;6.10;5.70;;;12.20;99.90;;;;;;5031387;28;20255;-63
2023/05/01 05:14:05;;;;;;;6.67;6.13;;;12.20;99.90;;;;;;5031427;28;20167;-64
2023/05/01 05:16:31;;;;;;;6.97;6.50;;;12.30;99.90;;;;;;5031534;28;20179;-64
2023/05/01 05:18:57;;;;;;;7.03;6.53;;;12.50;99.90;;;;;;5030938;28;20207;-63
2023/05/01 05:21:22;;;;;;;6.33;5.97;;;12.60;99.90;;;;;;5031303;28;20171;-64
2023/05/01 05:23:48;;;;;;;6.87;6.47;;;12.70;99.90;;;;;;5031268;28;20669;-64
2023/05/01 05:26:14;;;;;;;6.80;6.40;;;12.80;99.90;;;;;;5031325;28;20184;-63
2023/05/01 05:28:39;;;;;;;6.73;6.13;;;12.90;99.90;;;;;;5030920;28;20203;-64
2023/05/01 05:31:05;;;;;;;7.37;6.77;;;13.00;99.90;;;;;;5031251;28;20176;-63
2023/05/01 05:33:30;;;;;;;6.00;5.60;;;13.10;99.90;;;;;;5031341;28;20719;-63
2023/05/01 05:35:58;;;;;;;6.13;5.83;;;13.20;99.90;;;;;;5031283;28;20629;-64
2023/05/01 05:38:23;;;;;;;6.17;5.77;;;13.20;99.90;;;;;;5031282;28;20297;-63
2023/05/01 05:40:49;;;;;;;6.23;5.87;;;13.20;99.90;;;;;;5030829;28;20199;-64
2023/05/01 05:43:15;;;;;;;5.83;5.53;;;13.30;99.90;;;;;;5031170;28;20564;-64
2023/05/01 05:45:40;;;;;;;6.20;5.80;;;13.40;99.90;;;;;;5030808;28;20171;-65
2023/05/01 05:48:06;;;;;;;5.67;5.27;;;13.50;99.90;;;;;;5030890;28;20226;-65
2023/05/01 05:50:32;;;;;;;6.43;5.77;;;13.50;99.90;;;;;;5030681;28;20195;-65
2023/05/01 05:52:57;;;;;;;5.87;5.47;;;13.60;99.90;;;;;;5029359;28;20171;-64
2023/05/01 05:55:23;;;;;;;5.17;4.87;;;13.60;99.90;;;;;;5030466;28;20183;-65
2023/05/01 05:57:48;;;;;;;5.90;5.40;;;13.70;99.90;;;;;;5030517;28;20183;-65
2023/05/01 06:00:16;;;;;;;6.00;5.50;;;13.70;99.90;;;;;;5030414;28;20179;-65
2023/05/01 06:02:41;;;;;;;5.53;5.13;;;13.80;99.90;;;;;;5030597;28;20215;-64
2023/05/01 06:05:09;;;;;;;7.43;5.53;;;13.90;99.90;;;;;;5031188;28;20206;-65
2023/05/01 06:07:34;;;;;;;5.93;5.53;;;13.90;99.90;;;;;;5030511;28;20571;-65
2023/05/01 06:10:03;;;;;;;5.37;5.07;;;14.00;99.90;;;;;;5030546;28;20188;-65
2023/05/01 06:12:30;;;;;;;5.77;5.37;;;14.10;99.90;;;;;;5032770;28;20167;-65
2023/05/01 06:14:56;;;;;;;6.93;5.73;;;14.20;99.90;;;;;;5034126;28;20183;-65
2023/05/01 06:17:23;;;;;;;5.87;5.57;;;14.30;99.90;;;;;;5034652;28;20194;-64
2023/05/01 06:19:51;;;;;;;5.70;5.20;;;14.50;99.90;;;;;;5033898;28;20223;-65
2023/05/01 06:22:17;;;;;;;7.63;5.30;;;14.60;99.90;;;;;;5034441;28;20253;-65
2023/05/01 06:24:43;;;;;;;5.37;5.07;;;14.80;99.90;;;;;;5034459;28;20645;-65
2023/05/01 06:27:09;;;;;;;5.93;5.43;;;14.90;99.90;;;;;;5034312;28;20203;-65
2023/05/01 06:29:35;;;;;;;6.13;5.63;;;15.00;99.90;;;;;;5033662;28;20569;-65
2023/05/01 06:32:01;;;;;;;5.47;5.07;;;15.10;99.90;;;;;;5034412;28;20234;-65
2023/05/01 06:34:27;;;;;;;5.67;5.27;;;15.30;99.90;;;;;;5034129;28;20176;-65
2023/05/01 06:36:52;;;;;;;5.27;4.87;;;15.40;99.90;;;;;;5034027;28;20672;-64
2023/05/01 06:39:18;;;;;;;6.00;5.60;;;15.40;99.90;;;;;;5033283;28;20286;-64
2023/05/01 06:41:47;;;;;;;6.37;5.57;;;15.40;99.90;;;;;;5033978;28;20203;-64
2023/05/01 06:44:13;;;;;;;8.10;5.00;;;15.50;99.90;;;;;;5034175;28;20214;-65
2023/05/01 06:46:38;;;;;;;5.17;4.87;;;15.60;99.90;;;;;;5033990;28;20243;-65
2023/05/01 06:49:04;;;;;;;4.90;4.60;;;15.70;99.90;;;;;;5034028;28;20673;-65
2023/05/01 06:51:30;;;;;;;5.77;5.37;;;16.00;99.90;;;;;;5033713;28;20175;-64
2023/05/01 06:53:56;;;;;;;5.27;4.90;;;16.10;99.90;;;;;;5033858;28;20175;-65
2023/05/01 06:56:22;;;;;;;4.77;4.50;;;16.10;99.90;;;;;;5033564;28;20696;-65
2023/05/01 06:58:47;;;;;;;4.53;4.33;;;16.20;99.90;;;;;;5033483;28;20198;-65
2023/05/01 07:01:13;;;;;;;5.50;4.87;;;16.30;99.90;;;;;;5033488;28;20183;-65
2023/05/01 07:03:39;;;;;;;5.20;4.90;;;16.50;99.90;;;;;;5033730;28;20540;-65
2023/05/01 07:06:04;;;;;;;4.90;4.50;;;16.60;99.90;;;;;;5033535;28;20207;-64
2023/05/01 07:08:30;;;;;;;6.83;6.53;;;16.80;99.90;;;;;;5033704;28;20199;-64
2023/05/01 07:10:56;;;;;;;5.90;5.60;;;16.90;99.90;;;;;;5032725;28;20183;-64
2023/05/01 07:13:23;;;;;;;5.67;5.27;;;17.10;99.90;;;;;;5033713;28;20188;-64
2023/05/01 07:15:49;;;;;;;7.27;5.20;;;17.20;99.90;;;;;;5033563;28;20182;-65
2023/05/01 07:18:15;;;;;;;4.63;4.30;;;17.30;99.90;;;;;;5033575;28;20222;-63
2023/05/01 07:20:41;;;;;;;5.20;4.80;;;17.20;99.90;;;;;;5032581;28;20176;-64
2023/05/01 07:23:08;;;;;;;4.80;4.40;;;17.10;99.90;;;;;;5032680;28;20183;-64
2023/05/01 07:25:36;;;;;;;4.67;4.43;;;17.10;99.90;;;;;;5032119;28;20194;-63
2023/05/01 07:28:03;;;;;;;5.10;4.70;;;17.10;99.90;;;;;;5033273;28;20211;-64
2023/05/01 07:30:29;;;;;;;5.70;5.23;;;17.10;99.90;;;;;;5032770;28;20194;-64
2023/05/01 07:32:56;;;;;;;4.77;4.47;;;17.10;99.90;;;;;;5032905;28;20179;-65
2023/05/01 07:35:22;;;;;;;5.10;4.57;;;17.10;99.90;;;;;;5033199;28;20179;-64
2023/05/01 07:37:50;;;;;;;4.90;4.40;;;17.20;99.90;;;;;;5032937;28;20180;-63
2023/05/01 07:40:16;;;;;;;5.17;4.87;;;17.30;99.90;;;;;;5032597;28;20175;-64
2023/05/01 07:42:42;;;;;;;5.00;4.70;;;17.40;99.90;;;;;;5032901;28;20206;-64
2023/05/01 07:45:08;;;;;;;4.27;4.00;;;17.60;99.90;;;;;;5032694;28;20571;-64
2023/05/01 07:47:34;;;;;;;5.53;5.03;;;17.80;99.90;;;;;;5032760;28;20227;-64
2023/05/01 07:50:02;;;;;;;4.70;4.30;;;18.00;99.90;;;;;;5032228;28;20241;-64
2023/05/01 07:52:28;;;;;;;4.83;4.20;;;18.10;99.90;;;;;;5033437;28;20168;-64
2023/05/01 07:54:53;;;;;;;5.47;5.17;;;18.40;99.90;;;;;;5032528;28;20661;-64
2023/05/01 07:57:19;;;;;;;4.50;4.20;;;18.40;99.90;;;;;;5032896;28;20657;-63
2023/05/01 07:59:45;;;;;;;4.60;4.30;;;18.40;99.90;;;;;;5032466;28;20270;-64
2023/05/01 08:02:12;;;;;;;4.23;4.03;;;18.50;99.90;;;;;;5031851;28;20275;-64
2023/05/01 08:04:38;;;;;;;5.03;4.43;;;18.50;99.90;;;;;;5032650;28;20253;-64
2023/05/01 08:07:04;;;;;;;4.13;3.90;;;18.60;99.90;;;;;;5032421;28;20707;-63
2023/05/01 08:09:30;;;;;;;4.40;4.00;;;18.50;99.90;;;;;;5032091;28;20278;-64
2023/05/01 08:11:55;;;;;;;4.43;4.10;;;18.50;99.90;;;;;;5032256;28;20168;-64
2023/05/01 08:14:21;;;;;;;3.97;3.70;;;18.70;99.90;;;;;;5032461;28;20182;-64
2023/05/01 08:16:46;;;;;;;4.50;4.20;;;18.80;99.90;;;;;;5031990;28;20179;-64
2023/05/01 08:19:12;;;;;;;4.10;3.90;;;19.00;99.90;;;;;;5031866;28;20210;-64
2023/05/01 08:21:38;;;;;;;4.03;3.70;;;19.10;99.90;;;;;;5032010;28;20182;-64
2023/05/01 08:24:07;;;;;;;4.00;3.80;;;19.30;99.90;;;;;;5032017;28;20183;-64
2023/05/01 08:26:33;;;;;;;4.33;4.03;;;19.40;99.90;;;;;;5031006;28;20221;-64
2023/05/01 08:28:59;;;;;;;4.18;3.83;;;19.60;99.90;;;;;;5031629;28;20223;-64
2023/05/01 08:31:24;;;;;;;4.10;3.90;;;19.70;99.90;;;;;;5032339;28;20211;-64
2023/05/01 08:33:50;;;;;;;4.37;4.07;;;19.50;99.90;;;;;;5031789;28;20588;-64
2023/05/01 08:36:16;;;;;;;4.15;3.85;;;19.50;99.90;;;;;;5031163;28;20171;-64
2023/05/01 08:38:41;;;;;;;5.80;4.53;;;19.50;99.90;;;;;;5031501;28;20211;-64
2023/05/01 08:41:08;;;;;;;4.50;4.20;;;19.50;99.90;;;;;;5031444;28;20546;-64
2023/05/01 08:43:34;;;;;;;5.23;4.83;;;19.40;99.90;;;;;;5031563;28;20701;-64
2023/05/01 08:46:00;;;;;;;4.13;3.83;;;19.40;99.90;;;;;;5032041;28;20293;-64
2023/05/01 08:48:27;;;;;;;5.53;5.07;;;19.50;99.90;;;;;;5031583;28;20278;-64
2023/05/01 08:50:56;;;;;;;6.15;5.85;;;19.80;99.90;;;;;;5031268;28;20684;-64
2023/05/01 08:53:23;;;;;;;5.45;5.10;;;20.10;99.90;;;;;;5031581;28;20175;-64
2023/05/01 08:55:50;;;;;;;4.63;4.32;;;20.40;99.90;;;;;;5031590;28;20183;-64
2023/05/01 08:58:18;;;;;;;4.60;4.30;;;20.60;99.90;;;;;;5031405;28;20183;-64
2023/05/01 09:00:45;;;;;;;5.00;4.50;;;21.00;99.90;;;;;;5029478;28;20179;-65
2023/05/01 09:03:12;;;;;;;8.60;4.18;;;21.20;99.90;;;;;;5031189;28;20278;-65
2023/05/01 09:05:39;;;;;;;4.72;4.32;;;21.40;99.90;;;;;;5031404;28;20172;-65
2023/05/01 09:08:04;;;;;;;5.00;4.43;;;21.40;99.90;;;;;;5031333;28;20210;-65
2023/05/01 09:10:32;;;;;;;5.25;4.90;;;21.50;99.90;;;;;;5029623;28;20184;-65
2023/05/01 09:13:00;;;;;;;4.20;3.97;;;21.40;99.90;;;;;;5030957;28;20179;-65
2023/05/01 09:15:28;;;;;;;5.32;4.95;;;21.50;99.90;;;;;;5030913;28;20221;-64
2023/05/01 09:17:57;;;;;;;4.85;4.43;;;21.60;99.90;;;;;;5030901;28;20175;-65
2023/05/01 09:20:24;;;;;;;3.70;3.40;;;21.80;99.90;;;;;;5031197;28;20174;-65
2023/05/01 09:22:49;;;;;;;3.85;3.50;;;22.20;99.90;;;;;;5030638;28;20237;-65
2023/05/01 09:25:15;;;;;;;3.60;3.30;;;22.60;99.90;;;;;;5031457;28;20171;-65
2023/05/01 09:27:42;;;;;;;3.55;3.20;;;23.00;99.90;;;;;;5030714;28;20754;-65
2023/05/01 09:30:08;;;;;;;3.60;3.40;;;23.40;99.90;;;;;;5031536;28;20175;-65
2023/05/01 09:32:34;;;;;;;3.72;3.53;;;23.70;99.90;;;;;;5030755;28;20183;-65
2023/05/01 09:35:12;;;;;;;3.42;3.22;;;23.90;99.90;;;;;;5031082;28;20447;-65
2023/05/01 09:37:38;;;;;;;3.38;3.17;;;24.20;99.90;;;;;;5030781;28;20183;-65
2023/05/01 09:40:07;;;;;;;4.32;3.92;;;24.70;99.90;;;;;;5030552;28;20179;-65
2023/05/01 09:42:35;;;;;;;4.10;3.80;;;24.90;99.90;;;;;;5031269;28;20572;-65
2023/05/01 09:45:02;;;;;;;3.50;3.30;;;25.20;99.90;;;;;;5030904;28;20180;-65
2023/05/01 09:47:29;;;;;;;3.53;3.25;;;25.40;99.90;;;;;;5033622;28;20759;-65
2023/05/01 09:49:58;;;;;;;3.67;3.47;;;25.30;99.90;;;;;;5035057;28;20889;-65
2023/05/01 09:52:28;;;;;;;3.72;3.42;;;25.30;99.90;;;;;;5035155;28;20183;-65
2023/05/01 09:55:17;;;;;;;4.97;4.68;;;25.50;99.90;;;;;;5034801;28;20181;-63
2023/05/01 09:57:44;;;;;;;5.47;3.45;;;25.70;99.90;;;;;;5035305;28;20163;-63
2023/05/01 10:00:14;;;;;;;4.57;4.38;;;25.90;99.90;;;;;;5034775;28;20164;-63
2023/05/01 10:02:41;;;;;;;4.88;4.57;;;26.00;99.90;;;;;;5034781;28;20673;-63
2023/05/01 10:05:08;;;;;;;4.40;3.85;;;26.40;99.90;;;;;;5034083;28;20167;-64
2023/05/01 10:07:34;;;;;;;3.67;3.35;;;26.90;99.90;;;;;;5032851;28;20294;-64
2023/05/01 10:10:20;;;;;;;3.38;3.17;;;27.20;99.90;;;;;;5033015;28;20294;-64
2023/05/01 10:12:46;;;;;;;3.55;3.35;;;27.30;99.90;;;;;;5033731;28;20597;-64
2023/05/01 10:15:12;;;;;;;3.03;2.83;;;27.80;99.90;;;;;;5033420;28;20179;-64
2023/05/01 10:17:39;;;;;;;3.30;3.10;;;28.30;99.90;;;;;;5033930;28;20186;-64
2023/05/01 10:20:10;;;;;;;3.50;2.70;;;29.00;99.90;;;;;;5033966;28;20196;-65
2023/05/01 10:22:36;;;;;;;3.30;3.10;;;29.80;99.80;;;;;;5034415;28;20182;-64
2023/05/01 10:25:03;;;;;;;3.45;3.17;;;29.90;97.90;;;;;;5034067;28;20183;-64
2023/05/01 10:27:29;;;;;;;3.30;3.10;;;29.90;96.00;;;;;;5034172;28;20203;-64
2023/05/01 10:29:55;;;;;;;3.20;3.00;;;29.60;96.10;;;;;;5033764;28;20282;-64
2023/05/01 10:32:21;;;;;;;3.13;2.92;;;29.80;97.70;;;;;;5034552;28;20168;-64
2023/05/01 10:34:57;;;;;;;3.30;3.10;;;29.70;95.40;;;;;;5033746;28;20183;-64
2023/05/01 10:37:38;;;;;;;3.42;3.22;;;29.50;94.40;;;;;;5033251;28;20201;-64
2023/05/01 10:40:39;;;;;;;3.38;3.10;;;29.40;95.00;;;;;;5032101;28;20526;-64
2023/05/01 10:43:25;;;;;;;3.90;3.65;;;29.30;95.00;;;;;;5012268;28;20213;-64
2023/05/01 10:45:51;;;;;;;4.13;3.83;;;29.00;95.60;;;;;;5033800;28;20171;-64
2023/05/01 10:48:39;;;;;;;3.80;3.50;;;29.00;96.10;;;;;;5033858;28;20206;-64
2023/05/01 10:51:16;;;;;;;3.20;3.03;;;29.30;95.20;;;;;;5033759;28;20168;-64
2023/05/01 10:53:43;;;;;;;3.38;3.08;;;29.10;95.60;;;;;;5033675;28;20639;-64
2023/05/01 10:56:24;;;;;;;4.18;3.08;;;28.90;95.30;;;;;;5033948;28;20172;-64
2023/05/01 10:58:58;;;;;;;4.43;3.40;;;28.40;93.70;;;;;;5032340;28;20281;-64
2023/05/01 11:01:30;;;;;;;4.03;3.83;;;27.70;95.10;;;;;;5033609;28;20183;-64
2023/05/01 11:03:57;;;;;;;4.60;4.35;;;27.70;96.90;;;;;;5033325;28;20183;-65
2023/05/01 11:06:24;;;;;;;3.25;3.05;;;27.90;96.50;;;;;;5033102;28;20206;-62
2023/05/01 11:08:50;;;;;;;4.43;4.20;;;28.00;95.20;;;;;;5033013;28;20791;-62
2023/05/01 11:11:24;;;;;;;4.88;3.55;;;28.10;94.10;;;;;;5031167;28;20270;-62
2023/05/01 11:14:03;;;;;;;3.95;3.60;;;27.70;93.80;;;;;;5033213;28;20198;-62
2023/05/01 11:16:38;;;;;;;3.90;3.60;;;27.50;96.20;;;;;;5033639;28;20183;-62
2023/05/01 11:19:11;;;;;;;4.25;4.00;;;27.60;94.60;;;;;;5033365;28;20206;-63
2023/05/01 11:21:39;;;;;;;3.80;3.60;;;27.50;95.80;;;;;;5033432;28;20649;-63
2023/05/01 11:24:08;;;;;;;4.25;3.85;;;27.30;93.10;;;;;;5032937;28;20188;-64
2023/05/01 11:26:41;;;;;;;3.92;3.38;;;27.10;96.10;;;;;;5032879;28;20195;-63
2023/05/01 11:29:09;;;;;;;3.63;3.42;;;27.00;94.00;;;;;;5032742;28;20204;-64
2023/05/01 11:31:35;;;;;;;4.43;4.22;;;26.60;95.20;;;;;;5033436;28;20546;-64
2023/05/01 11:34:01;;;;;;;4.07;3.88;;;26.40;96.50;;;;;;5031347;28;20592;-63
2023/05/01 11:36:46;;;;;;;3.40;3.15;;;26.20;94.70;;;;;;5033257;28;20175;-63
2023/05/01 11:39:16;;;;;;;3.80;3.45;;;26.00;95.20;;;;;;5032212;28;20195;-63
2023/05/01 11:41:41;;;;;;;7.13;6.53;;;25.80;96.00;;;;;;5032426;28;20179;-64
2023/05/01 11:44:07;;;;;;;4.65;4.35;;;25.70;96.20;;;;;;5030823;28;20180;-64
2023/05/01 11:46:33;;;;;;;4.35;4.10;;;26.00;96.50;;;;;;5032515;28;20282;-63
2023/05/01 11:49:00;;;;;;;6.55;4.75;;;26.00;96.20;;;;;;5032421;28;20196;-64
2023/05/01 11:51:27;;;;;;;8.73;3.65;;;26.10;97.10;;;;;;5032329;28;20198;-64
2023/05/01 11:54:13;;;;;;;4.75;4.22;;;26.30;96.00;;;;;;5032242;28;20249;-64
2023/05/01 11:56:42;;;;;;;3.55;3.35;;;26.50;97.20;;;;;;5033014;28;20652;-64
2023/05/01 11:59:15;;;;;;;6.72;6.32;;;26.60;97.00;;;;;;5032226;28;20278;-64
2023/05/01 12:01:44;;;;;;;3.90;3.60;;;26.60;95.50;;;;;;5032264;28;20314;-65
2023/05/01 12:04:11;;;;;;;4.03;3.20;;;26.60;96.70;;;;;;5032962;28;20182;-65
2023/05/01 12:06:44;;;;;;;4.15;3.95;;;26.50;96.40;;;;;;5032070;28;20455;-64
2023/05/01 12:09:14;;;;;;;4.07;3.88;;;26.80;96.60;;;;;;5030650;28;20198;-65
2023/05/01 12:11:41;;;;;;;4.32;4.05;;;27.10;95.00;;;;;;5012833;28;20195;-63
2023/05/01 12:14:08;;;;;;;5.10;4.80;;;27.50;96.10;;;;;;5012963;28;20176;-64
2023/05/01 12:16:34;;;;;;;4.30;4.10;;;27.70;96.80;;;;;;5030589;28;20233;-63
2023/05/01 12:19:00;;;;;;;2.72;2.60;;;28.10;94.20;;;;;;5032015;28;20207;-64
2023/05/01 12:21:27;;;;;;;4.18;3.95;;;28.60;91.00;;;;;;5029072;28;20716;-65
2023/05/01 12:23:53;;;;;;;5.03;4.50;;;28.50;91.40;;;;;;5032402;28;20202;-65
2023/05/01 12:26:23;;;;;;;4.40;4.18;;;28.00;93.60;;;;;;5032054;28;20199;-64
2023/05/01 12:28:54;;;;;;;4.05;3.75;;;28.00;93.80;;;;;;5031854;28;20311;-64
2023/05/01 12:31:21;;;;;;;4.90;4.68;;;28.40;94.40;;;;;;5032021;28;20664;-64
2023/05/01 12:34:06;;;;;;;3.50;3.20;;;28.80;92.20;;;;;;5031972;28;20175;-64
2023/05/01 12:36:34;;;;;;;3.58;3.28;;;29.10;91.80;;;;;;5030321;28;20681;-64
2023/05/01 12:39:04;;;;;;;3.55;3.30;;;29.10;91.30;;;;;;5030177;28;20756;-64
2023/05/01 12:41:43;;;;;;;3.50;3.28;;;28.70;90.40;;;;;;5031781;28;20175;-64
2023/05/01 12:44:18;;;;;;;3.80;3.60;;;27.90;89.00;;;;;;5032232;28;20175;-64
2023/05/01 12:46:51;;;;;;;3.53;3.25;;;26.80;91.10;;;;;;5031664;28;20696;-64
2023/05/01 12:49:18;;;;;;;3.85;3.55;;;26.10;90.70;;;;;;5031649;28;20238;-64
2023/05/01 12:51:52;;;;;;;4.15;3.95;;;25.40;91.40;;;;;;5031685;28;20172;-64